Time;durP1;ratioP1;P1;durP2;ratioP2;P2;SDS_P1;SDS_P2;PMS_P1;PMS_P2;Temp;Humidity;BMP_temperature;BMP_pressure;BME280_temperature;BME280_humidity;BME280_pressure;Samples;Min_cycle;Max_cycle;Signal;HPM_P1;HPM_P2
2022/06/24 00:00:37;;;;;;;7.15;3.47;;;22.40;82.30;;;;;;5051802;28;20368;-74
2022/06/24 00:03:03;;;;;;;4.47;2.70;;;22.40;83.50;;;;;;5048377;28;20095;-75
2022/06/24 00:05:29;;;;;;;4.35;2.28;;;22.40;83.00;;;;;;5067581;28;20031;-76
2022/06/24 00:07:56;;;;;;;6.25;3.00;;;22.50;81.50;;;;;;5054733;28;20017;-75
2022/06/24 00:10:31;;;;;;;6.57;2.85;;;22.50;82.10;;;;;;5050519;28;20047;-75
2022/06/24 00:12:56;;;;;;;6.05;3.85;;;22.40;81.70;;;;;;5049788;28;20017;-76
2022/06/24 00:15:35;;;;;;;6.88;3.22;;;22.40;82.70;;;;;;5065538;28;20397;-76
2022/06/24 00:18:11;;;;;;;7.90;3.95;;;22.40;81.80;;;;;;5065977;28;20428;-75
2022/06/24 00:20:46;;;;;;;8.40;4.93;;;22.30;81.20;;;;;;5056092;28;20041;-75
2022/06/24 00:23:13;;;;;;;7.20;4.50;;;22.30;82.20;;;;;;5055318;28;20043;-75
2022/06/24 00:25:38;;;;;;;9.40;5.40;;;22.30;82.90;;;;;;5064775;28;20036;-75
2022/06/24 00:28:05;;;;;;;10.13;6.57;;;22.20;83.30;;;;;;5067426;28;20020;-75
2022/06/24 00:30:40;;;;;;;11.02;6.90;;;22.20;85.80;;;;;;5056255;28;20031;-75
2022/06/24 00:33:15;;;;;;;7.18;4.88;;;22.10;86.80;;;;;;5066076;28;20945;-76
2022/06/24 00:35:53;;;;;;;10.45;7.05;;;22.10;86.70;;;;;;5066234;28;20024;-75
2022/06/24 00:38:29;;;;;;;9.23;5.13;;;22.10;86.70;;;;;;5051487;28;20024;-76
2022/06/24 00:40:59;;;;;;;10.23;5.22;;;22.10;86.80;;;;;;5055158;28;20053;-76
2022/06/24 00:43:46;;;;;;;9.50;5.45;;;22.10;85.90;;;;;;5067631;28;20535;-76
2022/06/24 00:46:23;;;;;;;7.95;4.90;;;22.10;84.80;;;;;;5030927;28;20048;-76
2022/06/24 00:48:54;;;;;;;15.68;7.57;;;22.00;84.50;;;;;;5038467;28;20444;-76
2022/06/24 00:51:21;;;;;;;9.70;5.53;;;22.00;85.10;;;;;;5057600;28;20029;-76
2022/06/24 00:53:49;;;;;;;7.70;5.63;;;22.00;84.70;;;;;;5044429;28;20041;-76
2022/06/24 00:56:18;;;;;;;8.63;6.32;;;22.00;85.50;;;;;;5051180;28;20067;-76
2022/06/24 00:59:13;;;;;;;11.43;7.28;;;22.00;86.90;;;;;;5065744;28;20021;-75
2022/06/24 01:01:40;;;;;;;10.48;7.90;;;22.00;88.00;;;;;;5024780;28;20076;-75
2022/06/24 01:04:08;;;;;;;11.68;8.82;;;22.00;87.50;;;;;;5038170;28;20059;-74
2022/06/24 01:06:36;;;;;;;9.05;5.28;;;21.90;87.20;;;;;;5056081;28;20029;-76
2022/06/24 01:09:02;;;;;;;9.52;6.57;;;21.90;84.10;;;;;;5033523;28;20036;-76
2022/06/24 01:11:32;;;;;;;9.50;6.07;;;21.80;86.00;;;;;;5065000;28;20387;-73
2022/06/24 01:13:59;;;;;;;7.30;4.53;;;21.70;83.70;;;;;;5055564;28;20026;-76
2022/06/24 01:16:25;;;;;;;8.50;6.65;;;21.70;83.70;;;;;;5061033;28;20139;-75
2022/06/24 01:18:55;;;;;;;8.00;5.43;;;21.70;83.90;;;;;;5048731;28;20034;-75
2022/06/24 01:21:31;;;;;;;9.73;7.65;;;21.80;83.70;;;;;;5056547;28;20028;-75
2022/06/24 01:24:22;;;;;;;11.20;6.25;;;21.80;87.00;;;;;;5045768;28;20093;-75
2022/06/24 01:26:50;;;;;;;8.25;6.32;;;21.90;87.50;;;;;;5046121;28;20024;-75
2022/06/24 01:29:16;;;;;;;9.63;7.30;;;21.90;86.00;;;;;;5069537;28;20020;-75
2022/06/24 01:31:43;;;;;;;8.02;5.43;;;21.90;88.10;;;;;;5057735;28;20035;-75
2022/06/24 01:34:10;;;;;;;16.52;8.15;;;21.90;86.40;;;;;;5057912;28;20021;-76
2022/06/24 01:36:36;;;;;;;8.02;5.38;;;21.90;86.60;;;;;;5055166;28;20036;-76
2022/06/24 01:39:03;;;;;;;13.70;8.95;;;21.90;84.20;;;;;;5045790;28;20038;-76
2022/06/24 01:41:30;;;;;;;12.52;10.07;;;22.00;87.40;;;;;;5037271;28;20033;-75
2022/06/24 01:43:55;;;;;;;14.13;10.75;;;21.90;87.80;;;;;;5030000;28;20627;-75
2022/06/24 01:46:21;;;;;;;10.77;7.15;;;21.90;88.40;;;;;;5054680;28;20111;-74
2022/06/24 01:48:47;;;;;;;17.27;9.48;;;21.80;88.80;;;;;;5052867;28;20483;-76
2022/06/24 01:51:14;;;;;;;9.32;6.85;;;21.80;90.10;;;;;;5056406;28;20031;-75
2022/06/24 01:53:40;;;;;;;11.18;7.75;;;21.70;89.80;;;;;;5055511;28;20017;-75
2022/06/24 01:56:08;;;;;;;8.43;5.97;;;21.60;90.30;;;;;;5048928;28;20704;-76
2022/06/24 01:58:33;;;;;;;12.32;7.78;;;21.60;90.40;;;;;;5072381;28;20025;-76
2022/06/24 02:00:59;;;;;;;9.48;7.18;;;21.60;90.30;;;;;;5064959;28;20041;-76
2022/06/24 02:03:25;;;;;;;12.45;8.35;;;21.50;90.00;;;;;;5053028;28;20096;-75
2022/06/24 02:05:51;;;;;;;15.40;11.32;;;21.50;90.60;;;;;;5053970;28;20059;-76
2022/06/24 02:08:17;;;;;;;13.30;9.02;;;21.40;90.80;;;;;;5057649;28;20026;-78
2022/06/24 02:13:27;;;;;;;9.65;7.22;;;21.40;91.50;;;;;;5060650;28;20124;-76
2022/06/24 02:16:04;;;;;;;13.70;9.48;;;21.40;91.40;;;;;;5064907;28;20017;-76
2022/06/24 02:18:31;;;;;;;12.93;9.40;;;21.40;91.60;;;;;;5064869;28;20040;-76
2022/06/24 02:20:58;;;;;;;10.93;7.07;;;21.40;91.90;;;;;;5055045;28;20051;-76
2022/06/24 02:23:24;;;;;;;8.02;6.43;;;21.40;91.60;;;;;;5055121;28;20021;-75
2022/06/24 02:25:51;;;;;;;7.80;5.78;;;;;;;;;;5055607;28;20090;-75
2022/06/24 02:28:17;;;;;;;9.88;7.10;;;21.30;90.80;;;;;;5052504;28;20017;-74
2022/06/24 02:30:44;;;;;;;11.57;7.88;;;21.20;91.60;;;;;;5069693;28;20437;-76
2022/06/24 02:33:11;;;;;;;11.90;7.38;;;21.20;91.80;;;;;;5059060;28;20033;-76
2022/06/24 02:35:38;;;;;;;8.35;5.63;;;21.20;91.80;;;;;;5052502;28;20112;-77
2022/06/24 02:38:05;;;;;;;7.80;4.13;;;21.10;92.10;;;;;;5050694;28;20037;-76
2022/06/24 02:40:45;;;;;;;6.95;3.92;;;21.10;92.00;;;;;;5058692;28;20575;-75
2022/06/24 02:43:18;;;;;;;7.30;4.88;;;21.10;92.20;;;;;;5056673;28;20478;-76
2022/06/24 02:45:46;;;;;;;6.50;3.70;;;21.10;92.40;;;;;;5052047;28;20036;-77
2022/06/24 02:48:13;;;;;;;6.18;3.10;;;21.10;92.20;;;;;;5057618;28;20020;-75
2022/06/24 02:50:46;;;;;;;4.82;2.28;;;21.00;91.80;;;;;;5053954;28;20040;-76
2022/06/24 02:53:14;;;;;;;3.75;2.13;;;21.00;91.60;;;;;;5054581;28;20075;-76
2022/06/24 02:55:41;;;;;;;5.32;2.30;;;21.00;91.30;;;;;;5044194;28;20403;-77
2022/06/24 02:58:07;;;;;;;3.95;1.80;;;21.00;91.40;;;;;;5044288;28;20050;-76
2022/06/24 03:00:34;;;;;;;4.70;1.60;;;20.90;91.30;;;;;;5050832;28;20464;-76
2022/06/24 03:03:01;;;;;;;3.55;1.40;;;20.90;91.20;;;;;;5035571;28;20025;-75
2022/06/24 03:05:27;;;;;;;3.22;1.40;;;20.80;91.10;;;;;;5063432;28;20025;-75
2022/06/24 03:07:53;;;;;;;4.40;1.65;;;20.70;91.10;;;;;;5052711;28;20027;-77
2022/06/24 03:10:20;;;;;;;3.88;2.28;;;20.60;90.70;;;;;;5064171;28;20020;-76
2022/06/24 03:12:46;;;;;;;5.60;2.30;;;20.50;91.00;;;;;;5072191;28;20070;-75
2022/06/24 03:15:12;;;;;;;5.38;2.08;;;20.40;91.60;;;;;;5058987;28;20446;-75
2022/06/24 03:17:39;;;;;;;4.25;2.15;;;20.40;91.80;;;;;;5048826;28;20029;-76
2022/06/24 03:20:07;;;;;;;4.65;2.42;;;20.30;91.70;;;;;;5057083;28;20056;-75
2022/06/24 03:22:33;;;;;;;3.15;2.00;;;20.30;91.60;;;;;;5064181;28;20102;-75
2022/06/24 03:24:59;;;;;;;5.88;2.15;;;20.30;91.80;;;;;;5064644;28;20028;-76
2022/06/24 03:27:24;;;;;;;4.15;1.83;;;20.30;91.70;;;;;;5050946;28;20025;-76
2022/06/24 03:29:50;;;;;;;3.25;2.20;;;20.40;91.70;;;;;;5057446;28;20032;-75
2022/06/24 03:32:16;;;;;;;3.95;1.95;;;20.40;91.70;;;;;;5055388;28;20025;-75
2022/06/24 03:34:42;;;;;;;7.07;2.92;;;20.50;91.60;;;;;;5050346;28;20017;-76
2022/06/24 03:37:08;;;;;;;8.43;3.00;;;20.40;91.60;;;;;;5050895;28;20028;-76
2022/06/24 03:39:34;;;;;;;4.38;2.60;;;20.50;91.80;;;;;;5053399;28;20044;-75
2022/06/24 03:42:00;;;;;;;4.85;3.08;;;20.50;91.50;;;;;;5062838;28;20127;-75
2022/06/24 03:44:26;;;;;;;7.28;2.67;;;20.50;91.60;;;;;;5039544;28;20120;-76
2022/06/24 03:46:51;;;;;;;4.47;2.42;;;20.40;91.60;;;;;;5058935;28;20032;-76
2022/06/24 03:49:19;;;;;;;6.03;2.50;;;20.40;91.40;;;;;;5037042;28;20051;-76
2022/06/24 03:51:45;;;;;;;6.30;2.58;;;20.40;91.50;;;;;;5060165;28;20127;-75
2022/06/24 03:54:10;;;;;;;5.40;2.40;;;20.30;91.50;;;;;;5034536;28;20084;-74
2022/06/24 03:56:37;;;;;;;4.53;2.40;;;20.30;91.90;;;;;;5059447;28;20065;-74
2022/06/24 03:59:03;;;;;;;5.20;2.65;;;20.30;91.50;;;;;;5031756;28;20041;-78
2022/06/24 04:01:29;;;;;;;6.20;2.33;;;20.30;91.50;;;;;;5062149;28;20036;-75
2022/06/24 04:03:54;;;;;;;5.47;2.47;;;20.30;91.40;;;;;;5050252;28;20028;-75
2022/06/24 04:06:20;;;;;;;4.85;2.22;;;20.30;91.40;;;;;;5063433;28;20016;-74
2022/06/24 04:08:46;;;;;;;8.85;2.50;;;20.30;91.30;;;;;;5040604;28;20602;-75
2022/06/24 04:11:13;;;;;;;5.85;2.70;;;20.20;91.40;;;;;;5054551;28;20479;-75
2022/06/24 04:13:39;;;;;;;4.47;1.88;;;20.20;91.30;;;;;;5052202;28;20060;-75
2022/06/24 04:16:05;;;;;;;4.30;2.17;;;20.20;91.50;;;;;;5058218;28;20063;-74
2022/06/24 04:18:31;;;;;;;5.88;2.85;;;20.20;91.50;;;;;;5053183;28;20083;-75
2022/06/24 04:20:57;;;;;;;3.33;1.83;;;20.20;91.60;;;;;;5045628;28;20083;-75
2022/06/24 04:23:23;;;;;;;7.20;2.78;;;20.10;91.60;;;;;;5064642;28;20028;-75
2022/06/24 04:25:49;;;;;;;4.40;2.28;;;20.10;91.70;;;;;;5058589;28;20027;-75
2022/06/24 04:28:16;;;;;;;4.30;2.40;;;20.10;91.70;;;;;;5072720;28;20020;-76
2022/06/24 04:30:43;;;;;;;5.43;2.60;;;20.00;91.60;;;;;;5043520;28;20044;-76
2022/06/24 04:33:08;;;;;;;4.80;2.30;;;20.00;91.70;;;;;;5040545;28;20032;-77
2022/06/24 04:35:34;;;;;;;6.60;2.67;;;20.00;91.70;;;;;;5036892;28;20025;-76
2022/06/24 04:38:02;;;;;;;6.40;2.65;;;20.00;91.60;;;;;;5056408;28;20032;-76
2022/06/24 04:40:27;;;;;;;3.90;2.40;;;20.00;91.60;;;;;;5030452;28;20115;-74
2022/06/24 04:42:53;;;;;;;5.78;2.60;;;20.10;91.60;;;;;;5059640;28;20387;-75
2022/06/24 04:45:19;;;;;;;4.25;2.30;;;20.10;91.60;;;;;;5050749;28;20021;-75
2022/06/24 04:47:45;;;;;;;6.25;2.50;;;20.10;91.70;;;;;;5052642;28;20462;-74
2022/06/24 04:50:11;;;;;;;4.13;2.35;;;20.10;91.70;;;;;;5038438;28;20044;-75
2022/06/24 04:52:38;;;;;;;5.35;2.65;;;20.20;91.60;;;;;;5058507;28;20024;-76
2022/06/24 04:55:05;;;;;;;4.32;2.42;;;20.20;91.60;;;;;;5053262;28;20549;-73
2022/06/24 04:57:31;;;;;;;5.60;2.80;;;20.30;91.70;;;;;;5057543;28;20055;-75
2022/06/24 04:59:56;;;;;;;5.03;2.60;;;20.30;91.60;;;;;;5039431;28;20053;-74
2022/06/24 05:02:22;;;;;;;7.05;2.60;;;20.20;91.60;;;;;;5044238;28;20024;-75
2022/06/24 05:04:48;;;;;;;11.32;3.13;;;20.20;91.70;;;;;;5061620;28;20033;-75
2022/06/24 05:07:13;;;;;;;4.80;2.70;;;20.30;91.70;;;;;;5055383;28;20423;-76
2022/06/24 05:09:39;;;;;;;6.30;2.38;;;20.30;91.70;;;;;;5056759;28;20070;-76
2022/06/24 05:12:05;;;;;;;5.05;2.88;;;20.30;91.60;;;;;;5067304;28;20023;-76
2022/06/24 05:14:31;;;;;;;6.53;3.05;;;20.30;91.60;;;;;;5047151;28;20040;-76
2022/06/24 05:17:00;;;;;;;7.82;3.05;;;20.30;91.50;;;;;;5031617;28;20480;-77
2022/06/24 05:19:26;;;;;;;5.50;2.53;;;20.30;91.10;;;;;;5045517;28;20104;-75
2022/06/24 05:21:51;;;;;;;6.70;2.50;;;20.30;91.40;;;;;;5049807;28;20491;-76
2022/06/24 05:24:17;;;;;;;8.60;3.30;;;20.30;91.50;;;;;;5061976;28;20051;-77
2022/06/24 05:26:44;;;;;;;4.70;2.67;;;20.30;91.50;;;;;;5041206;28;20500;-75
2022/06/24 05:29:10;;;;;;;6.20;2.97;;;20.40;91.50;;;;;;5044301;28;20028;-76
2022/06/24 05:31:36;;;;;;;4.88;2.50;;;20.40;91.50;;;;;;5070164;28;20024;-75
2022/06/24 05:34:02;;;;;;;10.43;3.28;;;20.40;91.60;;;;;;5057166;28;20064;-75
2022/06/24 05:36:28;;;;;;;5.05;2.70;;;20.40;91.60;;;;;;5048369;28;20039;-75
2022/06/24 05:38:54;;;;;;;7.65;3.72;;;20.40;91.50;;;;;;5053185;28;20029;-76
2022/06/24 05:41:19;;;;;;;8.15;3.35;;;20.40;91.40;;;;;;5035720;28;20033;-75
2022/06/24 05:43:46;;;;;;;6.40;2.72;;;20.40;91.40;;;;;;5054765;28;20811;-75
2022/06/24 05:46:12;;;;;;;6.32;2.65;;;20.40;91.40;;;;;;5060763;28;20363;-76
2022/06/24 05:48:39;;;;;;;4.72;2.78;;;20.40;91.40;;;;;;5048999;28;20064;-75
2022/06/24 05:51:09;;;;;;;5.53;2.60;;;20.40;91.50;;;;;;5057427;28;20088;-76
2022/06/24 05:56:22;;;;;;;6.50;3.25;;;20.40;91.60;;;;;;5064924;28;20047;-75
2022/06/24 05:58:48;;;;;;;7.40;3.40;;;20.50;91.60;;;;;;5066958;28;20009;-75
2022/06/24 06:01:18;;;;;;;6.00;3.17;;;20.50;91.80;;;;;;5058283;28;20482;-75
2022/06/24 06:03:45;;;;;;;5.35;3.28;;;20.60;91.70;;;;;;5059962;28;20029;-75
2022/06/24 06:06:10;;;;;;;7.22;3.45;;;20.50;91.50;;;;;;5058432;28;20099;-74
2022/06/24 06:08:37;;;;;;;5.50;2.95;;;20.50;91.40;;;;;;5050208;28;20147;-73
2022/06/24 06:11:28;;;;;;;7.82;3.70;;;20.50;91.50;;;;;;5064783;28;20021;-74
2022/06/24 06:13:55;;;;;;;8.55;3.70;;;20.50;91.60;;;;;;5045884;28;20412;-73
2022/06/24 06:16:22;;;;;;;7.50;3.58;;;20.50;91.60;;;;;;5064192;28;20231;-74
2022/06/24 06:18:48;;;;;;;9.00;3.40;;;20.50;91.60;;;;;;5043749;28;20018;-74
2022/06/24 06:21:15;;;;;;;4.00;1.70;;;20.50;91.60;;;;;;5053114;28;20111;-72
2022/06/24 06:23:41;;;;;;;4.00;1.60;;;20.50;90.00;;;;;;5038299;28;20021;-73
2022/06/24 06:26:10;;;;;;;4.55;2.30;;;20.70;83.40;;;;;;5045786;28;20120;-73
2022/06/24 06:28:37;;;;;;;7.60;3.15;;;21.10;84.50;;;;;;5069394;28;20501;-72
2022/06/24 06:31:02;;;;;;;6.18;2.72;;;21.30;86.30;;;;;;5058288;28;20025;-73
2022/06/24 06:33:31;;;;;;;5.63;3.45;;;21.30;87.30;;;;;;5048447;28;20447;-73
2022/06/24 06:36:12;;;;;;;7.90;3.20;;;21.30;88.40;;;;;;5058226;28;20445;-72
2022/06/24 06:38:38;;;;;;;7.07;3.97;;;21.20;88.80;;;;;;5046016;28;20452;-73
2022/06/24 06:41:04;;;;;;;7.00;3.20;;;21.20;89.30;;;;;;5048245;28;20046;-73
2022/06/24 06:43:30;;;;;;;7.15;3.28;;;21.20;89.70;;;;;;5040303;28;20028;-73
2022/06/24 06:45:56;;;;;;;7.03;3.38;;;21.20;89.90;;;;;;5045571;28;20021;-72
2022/06/24 06:48:23;;;;;;;7.20;4.20;;;21.30;90.00;;;;;;5045867;28;20040;-73
2022/06/24 06:50:57;;;;;;;7.60;4.35;;;21.30;90.00;;;;;;5038976;28;20028;-74
2022/06/24 06:53:24;;;;;;;7.93;4.82;;;21.40;89.80;;;;;;5045061;28;20097;-74
2022/06/24 06:55:58;;;;;;;5.72;3.97;;;21.40;89.00;;;;;;5043864;28;20115;-75
2022/06/24 06:58:25;;;;;;;8.27;4.63;;;21.30;89.40;;;;;;5038841;28;20071;-75
2022/06/24 07:00:51;;;;;;;7.85;4.13;;;21.30;89.90;;;;;;5056829;28;20033;-73
2022/06/24 07:03:17;;;;;;;10.70;4.18;;;21.30;90.10;;;;;;5055701;28;20087;-75
2022/06/24 07:05:43;;;;;;;7.18;4.70;;;21.10;90.30;;;;;;5043132;28;20037;-75
2022/06/24 07:08:11;;;;;;;5.38;3.72;;;21.10;90.60;;;;;;5050402;28;20100;-75
2022/06/24 07:10:38;;;;;;;7.97;3.33;;;21.10;90.90;;;;;;5037832;28;20120;-77
2022/06/24 07:13:03;;;;;;;8.32;4.28;;;21.20;90.90;;;;;;5051288;28;20020;-75
2022/06/24 07:15:29;;;;;;;8.35;4.13;;;21.20;90.70;;;;;;5041719;28;20020;-80
2022/06/24 07:17:55;;;;;;;6.68;2.97;;;21.20;90.60;;;;;;5051017;28;20017;-78
2022/06/24 07:20:20;;;;;;;6.70;4.03;;;21.20;90.60;;;;;;5039890;28;20076;-78
2022/06/24 07:22:46;;;;;;;6.78;4.10;;;21.20;90.60;;;;;;5043273;28;20025;-76
2022/06/24 07:25:11;;;;;;;8.15;4.55;;;21.10;90.60;;;;;;5044630;28;20071;-75
2022/06/24 07:27:37;;;;;;;7.30;4.15;;;21.00;90.60;;;;;;5040500;28;20788;-77
2022/06/24 07:30:04;;;;;;;9.43;3.97;;;21.00;90.80;;;;;;5043862;28;20086;-75
2022/06/24 07:32:30;;;;;;;8.30;3.70;;;21.00;90.70;;;;;;5044389;28;20044;-73
2022/06/24 07:34:56;;;;;;;7.22;3.88;;;21.10;90.70;;;;;;5045541;28;20064;-75
2022/06/24 07:37:22;;;;;;;5.57;3.63;;;21.10;90.60;;;;;;5041764;28;20133;-74
2022/06/24 07:39:48;;;;;;;6.63;3.05;;;21.10;90.70;;;;;;5041114;28;20543;-75
2022/06/24 07:42:14;;;;;;;7.25;4.47;;;21.00;90.80;;;;;;5043003;28;20032;-76
2022/06/24 07:44:42;;;;;;;8.32;5.00;;;21.10;90.90;;;;;;5048963;28;20022;-77
2022/06/24 07:47:09;;;;;;;6.40;3.80;;;21.00;90.90;;;;;;5039995;28;20152;-76
2022/06/24 07:49:35;;;;;;;6.93;3.13;;;21.10;91.00;;;;;;5042189;28;20018;-75
2022/06/24 07:52:00;;;;;;;4.57;1.27;;;21.10;90.10;;;;;;5040659;28;20030;-76
2022/06/24 07:54:26;;;;;;;3.03;1.80;;;21.30;81.60;;;;;;5051816;28;20027;-76
2022/06/24 07:56:58;;;;;;;5.00;1.60;;;21.70;77.70;;;;;;5040528;28;20166;-77
2022/06/24 07:59:36;;;;;;;5.57;1.58;;;22.20;74.20;;;;;;5038923;28;20455;-79
2022/06/24 08:02:05;;;;;;;4.20;1.38;;;22.60;72.90;;;;;;5038324;28;20104;-77
2022/06/24 08:04:31;;;;;;;8.80;4.97;;;22.90;71.00;;;;;;5063832;28;20124;-77
2022/06/24 08:06:57;;;;;;;5.32;2.10;;;23.10;74.60;;;;;;5064659;28;20017;-81
2022/06/24 08:09:30;;;;;;;6.15;2.72;;;22.90;72.70;;;;;;5064708;28;20150;-79
2022/06/24 08:11:56;;;;;;;5.38;2.50;;;22.60;74.40;;;;;;5082407;28;20056;-77
2022/06/24 08:14:22;;;;;;;9.50;2.53;;;22.40;72.70;;;;;;5076824;28;20025;-78
2022/06/24 08:16:48;;;;;;;5.60;1.92;;;22.30;74.10;;;;;;5052599;28;20037;-80
2022/06/24 08:19:14;;;;;;;9.85;2.58;;;22.10;74.30;;;;;;5055207;28;20029;-81
2022/06/24 08:21:40;;;;;;;3.65;1.70;;;22.00;74.70;;;;;;5068478;28;20439;-82
2022/06/24 08:24:06;;;;;;;4.25;1.65;;;21.80;74.80;;;;;;5070679;28;20055;-76
2022/06/24 08:26:33;;;;;;;3.35;1.45;;;21.80;74.20;;;;;;5057855;28;20025;-76
2022/06/24 08:28:59;;;;;;;4.28;1.75;;;21.80;74.10;;;;;;5054583;28;20021;-76
2022/06/24 08:31:24;;;;;;;4.57;1.80;;;21.80;74.00;;;;;;5040817;28;20088;-75
2022/06/24 08:33:50;;;;;;;3.85;1.48;;;21.90;74.10;;;;;;5037037;28;20031;-77
2022/06/24 08:36:16;;;;;;;9.23;6.30;;;21.90;74.40;;;;;;5060374;28;20025;-78
2022/06/24 08:38:46;;;;;;;7.38;5.57;;;21.90;82.60;;;;;;5044695;28;20056;-84
2022/06/24 08:41:12;;;;;;;;;;;21.90;85.00;;;;;;5074118;28;20033;-78
2022/06/24 08:43:40;;;;;;;11.48;9.05;;;21.90;86.90;;;;;;5077009;28;20022;-84
2022/06/24 08:46:05;;;;;;;11.88;9.35;;;21.90;88.00;;;;;;5074928;28;20020;-80
2022/06/24 08:48:31;;;;;;;10.70;8.70;;;21.90;88.80;;;;;;5078874;28;20028;-80
2022/06/24 08:51:02;;;;;;;10.13;9.05;;;21.90;89.10;;;;;;5046732;28;20048;-76
2022/06/24 08:53:33;;;;;;;12.57;10.38;;;21.90;88.50;;;;;;5081932;28;20089;-81
2022/06/24 08:55:59;;;;;;;10.15;8.45;;;21.80;89.30;;;;;;5080776;28;20487;-79
2022/06/24 08:58:26;;;;;;;10.80;9.35;;;21.90;88.80;;;;;;5053644;28;20017;-78
2022/06/24 09:00:52;;;;;;;13.10;9.55;;;21.80;89.40;;;;;;5060819;28;20029;-77
2022/06/24 09:03:18;;;;;;;12.57;11.32;;;21.90;90.20;;;;;;5054314;28;20096;-75
2022/06/24 09:05:43;;;;;;;11.20;9.63;;;21.90;90.00;;;;;;5052037;28;20036;-79
2022/06/24 09:08:14;;;;;;;13.38;10.07;;;21.90;90.00;;;;;;5044925;28;20086;-78
2022/06/24 09:13:39;;;;;;;13.32;10.68;;;22.00;89.00;;;;;;5034095;28;20040;-78
2022/06/24 09:16:07;;;;;;;11.18;9.82;;;22.10;90.10;;;;;;5044518;28;20041;-78
2022/06/24 09:18:33;;;;;;;12.57;10.88;;;22.10;90.00;;;;;;5064719;28;20055;-77
2022/06/24 09:20:59;;;;;;;10.98;9.35;;;22.20;90.00;;;;;;5066003;28;20056;-78
2022/06/24 09:23:24;;;;;;;9.75;7.75;;;22.30;89.50;;;;;;5058120;28;20080;-77
2022/06/24 09:25:57;;;;;;;9.68;7.97;;;22.20;89.50;;;;;;5057684;28;20027;-77
2022/06/24 09:28:31;;;;;;;9.77;7.55;;;22.30;89.70;;;;;;5038009;28;20029;-78
2022/06/24 09:31:06;;;;;;;10.57;8.07;;;22.20;90.00;;;;;;5043229;28;20510;-77
2022/06/24 09:33:44;;;;;;;10.43;9.25;;;22.30;90.10;;;;;;5059833;28;20486;-77
2022/06/24 09:36:11;;;;;;;9.75;8.35;;;22.40;90.20;;;;;;5053095;28;20501;-76
2022/06/24 09:38:59;;;;;;;10.60;9.02;;;22.40;89.80;;;;;;5052205;28;20163;-77
2022/06/24 09:41:26;;;;;;;11.35;9.68;;;22.40;89.30;;;;;;5037134;28;20105;-79
2022/06/24 09:43:53;;;;;;;12.25;11.05;;;22.40;89.10;;;;;;5061584;28;20108;-76
2022/06/24 09:46:24;;;;;;;10.57;8.93;;;22.30;89.40;;;;;;5067348;28;20017;-81
2022/06/24 09:48:53;;;;;;;11.88;9.30;;;22.30;89.60;;;;;;5060659;28;20435;-79
2022/06/24 09:51:19;;;;;;;8.80;7.43;;;22.40;90.00;;;;;;5052569;28;20344;-80
2022/06/24 09:53:46;;;;;;;10.65;9.27;;;22.40;89.60;;;;;;5047211;28;20032;-78
2022/06/24 09:56:13;;;;;;;11.00;8.80;;;22.50;89.20;;;;;;5032950;28;20018;-80
2022/06/24 09:58:42;;;;;;;12.00;10.65;;;22.50;88.50;;;;;;5061384;28;20029;-78
2022/06/24 10:01:09;;;;;;;10.25;9.15;;;22.50;89.10;;;;;;5041600;28;20396;-79
2022/06/24 10:03:35;;;;;;;12.57;11.27;;;22.50;88.80;;;;;;5043693;28;20021;-80
2022/06/24 10:06:08;;;;;;;13.35;11.20;;;22.60;88.80;;;;;;5038370;28;20025;-78
2022/06/24 10:08:35;;;;;;;10.52;9.43;;;22.50;89.80;;;;;;5039337;28;20032;-78
2022/06/24 10:11:06;;;;;;;16.02;14.25;;;22.50;89.10;;;;;;5069262;28;20021;-79
2022/06/24 10:13:33;;;;;;;14.05;12.65;;;22.50;88.30;;;;;;5043509;28;20025;-79
2022/06/24 10:16:02;;;;;;;15.07;13.68;;;22.50;88.70;;;;;;5033072;28;20034;-80
2022/06/24 10:18:34;;;;;;;14.63;13.05;;;22.60;87.70;;;;;;5057233;28;20084;-79
2022/06/24 10:21:05;;;;;;;15.95;14.32;;;22.50;87.80;;;;;;5061740;28;20108;-82
2022/06/24 10:23:44;;;;;;;14.50;12.07;;;22.50;89.20;;;;;;5055263;28;20028;-85
2022/06/24 10:26:10;;;;;;;17.75;15.98;;;22.60;86.90;;;;;;5079556;28;20025;-77
2022/06/24 10:29:00;;;;;;;13.95;10.80;;;22.70;87.90;;;;;;5064988;28;20031;-79
2022/06/24 10:31:53;;;;;;;13.93;11.05;;;22.70;88.60;;;;;;5026507;28;20029;-78
2022/06/24 10:34:25;;;;;;;16.40;13.07;;;22.80;85.90;;;;;;5061013;28;20021;-78
2022/06/24 10:37:12;;;;;;;17.95;16.25;;;22.90;87.30;;;;;;5057424;28;20038;-76
2022/06/24 10:39:48;;;;;;;19.08;17.15;;;23.00;87.00;;;;;;5061740;28;20044;-77
2022/06/24 10:42:15;;;;;;;13.07;11.73;;;23.10;85.60;;;;;;5051849;28;20032;-76
2022/06/24 10:45:02;;;;;;;15.25;12.77;;;23.10;83.60;;;;;;5063197;28;20060;-77
2022/06/24 10:47:38;;;;;;;16.45;14.35;;;23.20;83.80;;;;;;5043093;28;20495;-77
2022/06/24 10:50:13;;;;;;;18.30;15.07;;;23.40;85.30;;;;;;5057336;28;20021;-77
2022/06/24 10:52:59;;;;;;;12.82;11.45;;;23.50;85.40;;;;;;5070672;28;20560;-77
2022/06/24 10:55:31;;;;;;;14.95;13.05;;;23.80;84.10;;;;;;5056270;28;20019;-76
2022/06/24 10:58:08;;;;;;;13.85;12.40;;;23.90;82.10;;;;;;5030781;28;20373;-77
2022/06/24 11:00:37;;;;;;;11.95;10.60;;;24.10;80.90;;;;;;5062980;28;20045;-78
2022/06/24 11:03:05;;;;;;;13.35;11.95;;;24.20;80.00;;;;;;5040605;28;20021;-77
2022/06/24 11:05:33;;;;;;;11.88;10.65;;;24.30;78.00;;;;;;5062717;28;20086;-75
2022/06/24 11:08:00;;;;;;;14.93;12.32;;;24.50;77.80;;;;;;5052430;28;20160;-76
2022/06/24 11:10:30;;;;;;;14.02;11.95;;;24.70;77.60;;;;;;5063866;28;20135;-77
2022/06/24 11:12:58;;;;;;;8.52;7.07;;;24.90;78.20;;;;;;5051318;28;20021;-76
2022/06/24 11:15:45;;;;;;;12.15;8.95;;;25.10;76.80;;;;;;5056596;28;20024;-78
2022/06/24 11:18:23;;;;;;;12.63;10.68;;;25.30;75.40;;;;;;5031228;28;20025;-76
2022/06/24 11:20:54;;;;;;;10.85;9.75;;;25.50;73.60;;;;;;5059634;28;20437;-76
2022/06/24 11:23:30;;;;;;;11.32;9.32;;;25.60;71.20;;;;;;5032409;28;20116;-77
2022/06/24 11:26:01;;;;;;;10.10;6.38;;;25.70;72.20;;;;;;5055942;28;20021;-76
2022/06/24 11:28:30;;;;;;;10.48;8.60;;;25.80;71.10;;;;;;5039718;28;20036;-77
2022/06/24 11:31:13;;;;;;;8.57;7.38;;;25.90;68.30;;;;;;5054957;28;20025;-78
2022/06/24 11:33:42;;;;;;;8.75;6.82;;;25.90;68.70;;;;;;5039028;28;20037;-78
2022/06/24 11:36:14;;;;;;;9.40;7.50;;;26.20;69.30;;;;;;5054876;28;20028;-78
2022/06/24 11:38:54;;;;;;;8.88;6.28;;;26.60;67.90;;;;;;5044370;28;20045;-77
2022/06/24 11:41:34;;;;;;;9.00;6.22;;;26.80;66.30;;;;;;5038192;28;20040;-76
2022/06/24 11:44:00;;;;;;;;;;;26.70;66.60;;;;;;5035340;28;20060;-77
2022/06/24 11:46:25;;;;;;;8.02;5.50;;;26.80;65.10;;;;;;5054258;28;20643;-78
2022/06/24 11:49:11;;;;;;;10.77;6.55;;;26.80;63.70;;;;;;5068140;28;20039;-78
2022/06/24 11:51:38;;;;;;;4.88;2.72;;;26.70;63.80;;;;;;5059315;28;20028;-77
2022/06/24 11:54:07;;;;;;;7.72;4.53;;;26.60;65.00;;;;;;5069180;28;20459;-78
2022/06/24 11:56:39;;;;;;;5.75;3.38;;;26.60;65.40;;;;;;5066625;28;20027;-78
2022/06/24 11:59:06;;;;;;;5.25;3.03;;;26.50;64.00;;;;;;5077285;28;20020;-77
2022/06/24 12:01:33;;;;;;;6.63;3.88;;;26.20;65.60;;;;;;5057382;28;20075;-78
2022/06/24 12:04:08;;;;;;;4.18;2.25;;;25.90;66.10;;;;;;5052619;28;20036;-78
2022/06/24 12:06:35;;;;;;;9.25;8.30;;;25.80;67.40;;;;;;5055347;28;20028;-79
2022/06/24 12:09:01;;;;;;;14.40;11.50;;;25.50;67.80;;;;;;5057279;28;20086;-80
2022/06/24 12:11:27;;;;;;;10.00;8.57;;;25.10;69.90;;;;;;5051516;28;20434;-78
2022/06/24 12:14:02;;;;;;;10.75;7.97;;;24.70;71.90;;;;;;5052933;28;20120;-79
2022/06/24 12:16:48;;;;;;;17.45;15.75;;;24.50;73.20;;;;;;5064438;28;20029;-78
2022/06/24 12:19:14;;;;;;;15.18;13.57;;;24.20;76.50;;;;;;5058269;28;20083;-79
2022/06/24 12:21:40;;;;;;;10.38;8.70;;;23.90;78.40;;;;;;5053221;28;20029;-79
2022/06/24 12:24:19;;;;;;;6.35;3.97;;;23.50;77.10;;;;;;5060042;28;20021;-78
2022/06/24 12:26:45;;;;;;;8.40;5.20;;;23.30;76.90;;;;;;5052034;28;20025;-78
2022/06/24 12:29:10;;;;;;;7.45;4.18;;;23.30;77.10;;;;;;5061751;28;20494;-79
2022/06/24 12:31:38;;;;;;;5.97;3.65;;;23.30;77.80;;;;;;5051975;28;20032;-79
2022/06/24 12:34:04;;;;;;;4.90;3.38;;;23.40;77.00;;;;;;5059792;28;20028;-78
2022/06/24 12:36:41;;;;;;;8.27;3.65;;;23.70;75.90;;;;;;5048406;28;20392;-78
2022/06/24 12:39:09;;;;;;;13.48;11.02;;;23.80;74.40;;;;;;5054502;28;20400;-78
2022/06/24 12:41:46;;;;;;;4.72;2.92;;;24.00;75.10;;;;;;5067091;28;20499;-80
2022/06/24 12:44:13;;;;;;;7.82;3.97;;;24.20;73.40;;;;;;5061095;28;20118;-77
2022/06/24 12:50:35;;;;;;;4.80;3.17;;;24.50;74.30;;;;;;5050415;28;20029;-78
2022/06/24 12:52:43;;;;;;;7.10;5.00;;;25.20;69.90;;;;;;5047139;28;20286;-79
2022/06/24 12:55:11;;;;;;;7.10;4.22;;;25.40;69.90;;;;;;5054890;28;20070;-77
2022/06/24 12:57:37;;;;;;;5.75;3.95;;;25.50;70.20;;;;;;5040022;28;20035;-76
2022/06/24 13:00:08;;;;;;;6.25;2.95;;;25.70;68.20;;;;;;5046674;28;20563;-76
2022/06/24 13:02:48;;;;;;;6.25;3.70;;;25.60;67.50;;;;;;5042645;28;20025;-76